sensor_id;sensor_type;location;lat;lon;timestamp;pressure;altitude;pressure_sealevel;temperature;humidity
56402;BME280;42299;35.160;26.100;2022-09-01T00:00:12;100680.72;;;25.17;71.37
56402;BME280;42299;35.160;26.100;2022-09-01T00:01:39;100676.25;;;25.16;71.40
56402;BME280;42299;35.160;26.100;2022-09-01T00:03:01;100675.38;;;25.16;71.26
56402;BME280;42299;35.160;26.100;2022-09-01T00:04:25;100682.59;;;25.15;71.33
56402;BME280;42299;35.160;26.100;2022-09-01T00:05:48;100688.00;;;25.15;71.12
56402;BME280;42299;35.160;26.100;2022-09-01T00:07:15;100682.69;;;25.14;70.98
56402;BME280;42299;35.160;26.100;2022-09-01T00:08:37;100684.53;;;25.13;71.18
56402;BME280;42299;35.160;26.100;2022-09-01T00:10:03;100683.69;;;25.11;71.10
56402;BME280;42299;35.160;26.100;2022-09-01T00:11:27;100685.59;;;25.09;70.90
56402;BME280;42299;35.160;26.100;2022-09-01T00:12:52;100681.06;;;25.10;70.79
56402;BME280;42299;35.160;26.100;2022-09-01T00:14:15;100682.22;;;25.04;70.78
56402;BME280;42299;35.160;26.100;2022-09-01T00:15:36;100687.84;;;24.99;70.71
56402;BME280;42299;35.160;26.100;2022-09-01T00:16:59;100682.50;;;24.98;70.68
56402;BME280;42299;35.160;26.100;2022-09-01T00:18:23;100682.72;;;24.93;70.66
56402;BME280;42299;35.160;26.100;2022-09-01T00:19:44;100684.66;;;24.90;71.00
56402;BME280;42299;35.160;26.100;2022-09-01T00:21:07;100675.72;;;24.88;70.75
56402;BME280;42299;35.160;26.100;2022-09-01T00:22:30;100676.75;;;24.85;71.01
56402;BME280;42299;35.160;26.100;2022-09-01T00:23:53;100675.84;;;24.85;71.17
56402;BME280;42299;35.160;26.100;2022-09-01T00:25:17;100683.03;;;24.86;70.92
56402;BME280;42299;35.160;26.100;2022-09-01T00:26:40;100675.84;;;24.85;70.88
56402;BME280;42299;35.160;26.100;2022-09-01T00:28:03;100680.38;;;24.84;70.83
56402;BME280;42299;35.160;26.100;2022-09-01T00:29:26;100671.69;;;24.78;71.17
56402;BME280;42299;35.160;26.100;2022-09-01T00:30:49;100681.81;;;24.73;71.50
56402;BME280;42299;35.160;26.100;2022-09-01T00:32:11;100681.88;;;24.71;71.42
56402;BME280;42299;35.160;26.100;2022-09-01T00:33:34;100681.94;;;24.70;71.39
56402;BME280;42299;35.160;26.100;2022-09-01T00:34:56;100675.75;;;24.68;71.23
56402;BME280;42299;35.160;26.100;2022-09-01T00:36:19;100668.69;;;24.63;71.59
56402;BME280;42299;35.160;26.100;2022-09-01T00:37:42;100672.28;;;24.64;71.81
56402;BME280;42299;35.160;26.100;2022-09-01T00:39:04;100677.75;;;24.62;71.84
56402;BME280;42299;35.160;26.100;2022-09-01T00:40:27;100675.91;;;24.63;72.24
56402;BME280;42299;35.160;26.100;2022-09-01T00:41:51;100672.22;;;24.66;72.14
56402;BME280;42299;35.160;26.100;2022-09-01T00:43:19;100673.03;;;24.68;71.82
56402;BME280;42299;35.160;26.100;2022-09-01T00:44:41;100667.75;;;24.65;71.78
56402;BME280;42299;35.160;26.100;2022-09-01T00:46:04;100673.16;;;24.65;71.93
56402;BME280;42299;35.160;26.100;2022-09-01T00:47:26;100674.09;;;24.63;72.04
56402;BME280;42299;35.160;26.100;2022-09-01T00:48:52;100668.63;;;24.65;71.64
56402;BME280;42299;35.160;26.100;2022-09-01T00:50:16;100670.41;;;24.66;71.66
56402;BME280;42299;35.160;26.100;2022-09-01T00:51:42;100672.16;;;24.67;71.77
56402;BME280;42299;35.160;26.100;2022-09-01T00:53:05;100676.84;;;24.62;71.68
56402;BME280;42299;35.160;26.100;2022-09-01T00:54:31;100671.56;;;24.60;71.71
56402;BME280;42299;35.160;26.100;2022-09-01T00:55:54;100671.56;;;24.60;71.90
56402;BME280;42299;35.160;26.100;2022-09-01T00:57:17;100672.34;;;24.62;72.11
56402;BME280;42299;35.160;26.100;2022-09-01T00:58:41;100667.63;;;24.68;71.70
56402;BME280;42299;35.160;26.100;2022-09-01T01:00:09;100668.59;;;24.67;71.77
56402;BME280;42299;35.160;26.100;2022-09-01T01:01:31;100672.22;;;24.66;71.98
56402;BME280;42299;35.160;26.100;2022-09-01T01:02:55;100672.06;;;24.69;72.14
56402;BME280;42299;35.160;26.100;2022-09-01T01:04:19;100668.38;;;24.71;71.85
56402;BME280;42299;35.160;26.100;2022-09-01T01:05:43;100667.50;;;24.71;71.99
56402;BME280;42299;35.160;26.100;2022-09-01T01:07:14;100661.41;;;24.66;72.40
56402;BME280;42299;35.160;26.100;2022-09-01T01:08:41;100665.78;;;24.68;72.20
56402;BME280;42299;35.160;26.100;2022-09-01T01:10:11;100662.16;;;24.69;72.27
56402;BME280;42299;35.160;26.100;2022-09-01T01:11:34;100666.66;;;24.69;72.18
56402;BME280;42299;35.160;26.100;2022-09-01T01:12:57;100663.25;;;24.65;71.95
56402;BME280;42299;35.160;26.100;2022-09-01T01:14:23;100659.66;;;24.65;72.08
56402;BME280;42299;35.160;26.100;2022-09-01T01:15:47;100655.19;;;24.63;72.38
56402;BME280;42299;35.160;26.100;2022-09-01T01:17:09;100662.41;;;24.63;72.31
56402;BME280;42299;35.160;26.100;2022-09-01T01:18:32;100665.19;;;24.61;71.97
56402;BME280;42299;35.160;26.100;2022-09-01T01:19:55;100657.19;;;24.60;72.25
56402;BME280;42299;35.160;26.100;2022-09-01T01:21:41;100668.84;;;24.60;72.15
56402;BME280;42299;35.160;26.100;2022-09-01T01:23:37;100660.81;;;24.59;72.31
56402;BME280;42299;35.160;26.100;2022-09-01T01:25:02;100662.47;;;24.61;72.22
56402;BME280;42299;35.160;26.100;2022-09-01T01:26:24;100663.34;;;24.62;72.14
56402;BME280;42299;35.160;26.100;2022-09-01T01:27:47;100662.38;;;24.65;71.89
56402;BME280;42299;35.160;26.100;2022-09-01T01:29:09;100670.41;;;24.66;71.88
56402;BME280;42299;35.160;26.100;2022-09-01T01:30:32;100667.75;;;24.65;71.92
56402;BME280;42299;35.160;26.100;2022-09-01T01:31:55;100664.25;;;24.62;71.95
56402;BME280;42299;35.160;26.100;2022-09-01T01:33:20;100663.31;;;24.63;72.15
56402;BME280;42299;35.160;26.100;2022-09-01T01:34:42;100651.56;;;24.65;72.13
56402;BME280;42299;35.160;26.100;2022-09-01T01:36:08;100655.16;;;24.65;72.49
56402;BME280;42299;35.160;26.100;2022-09-01T01:37:33;100660.53;;;24.65;72.18
56402;BME280;42299;35.160;26.100;2022-09-01T01:38:58;100656.16;;;24.62;72.60
56402;BME280;42299;35.160;26.100;2022-09-01T01:40:24;100665.19;;;24.61;72.59
56402;BME280;42299;35.160;26.100;2022-09-01T01:41:46;100657.09;;;24.61;72.71
56402;BME280;42299;35.160;26.100;2022-09-01T01:43:11;100653.44;;;24.62;73.07
56402;BME280;42299;35.160;26.100;2022-09-01T01:44:43;100652.50;;;24.63;73.04
56402;BME280;42299;35.160;26.100;2022-09-01T01:46:09;100649.88;;;24.62;72.68
56402;BME280;42299;35.160;26.100;2022-09-01T01:47:32;100657.09;;;24.61;72.78
56402;BME280;42299;35.160;26.100;2022-09-01T01:48:56;100652.56;;;24.62;72.35
56402;BME280;42299;35.160;26.100;2022-09-01T01:50:19;100648.88;;;24.65;72.48
56402;BME280;42299;35.160;26.100;2022-09-01T01:51:41;100657.78;;;24.67;72.53
56402;BME280;42299;35.160;26.100;2022-09-01T01:53:07;100656.69;;;24.71;72.75
56402;BME280;42299;35.160;26.100;2022-09-01T01:54:31;100651.28;;;24.71;72.69
56402;BME280;42299;35.160;26.100;2022-09-01T01:55:55;100649.53;;;24.70;72.68
56402;BME280;42299;35.160;26.100;2022-09-01T01:57:24;100654.03;;;24.69;72.93
56402;BME280;42299;35.160;26.100;2022-09-01T01:58:51;100654.03;;;24.69;72.86
56402;BME280;42299;35.160;26.100;2022-09-01T02:00:20;100649.41;;;24.73;73.05
56402;BME280;42299;35.160;26.100;2022-09-01T02:01:44;100647.50;;;24.75;73.23
56402;BME280;42299;35.160;26.100;2022-09-01T02:03:11;100649.25;;;24.76;73.39
56402;BME280;42299;35.160;26.100;2022-09-01T02:04:39;100644.78;;;24.75;73.57
56402;BME280;42299;35.160;26.100;2022-09-01T02:06:05;100647.38;;;24.78;73.35
56402;BME280;42299;35.160;26.100;2022-09-01T02:07:29;100650.88;;;24.80;73.39
56402;BME280;42299;35.160;26.100;2022-09-01T02:08:54;100654.38;;;24.82;73.59
56402;BME280;42299;35.160;26.100;2022-09-01T02:10:18;100647.25;;;24.81;73.48
56402;BME280;42299;35.160;26.100;2022-09-01T02:11:41;100650.88;;;24.80;73.67
56402;BME280;42299;35.160;26.100;2022-09-01T02:13:06;100662.69;;;24.77;73.43
56402;BME280;42299;35.160;26.100;2022-09-01T02:14:28;100654.81;;;24.73;73.29
56402;BME280;42299;35.160;26.100;2022-09-01T02:15:53;100647.66;;;24.72;73.63
56402;BME280;42299;35.160;26.100;2022-09-01T02:17:15;100644.06;;;24.71;73.42
56402;BME280;42299;35.160;26.100;2022-09-01T02:18:40;100644.88;;;24.73;73.57
56402;BME280;42299;35.160;26.100;2022-09-01T02:20:02;100642.09;;;24.75;73.96
56402;BME280;42299;35.160;26.100;2022-09-01T02:21:26;100641.09;;;24.77;74.16
56402;BME280;42299;35.160;26.100;2022-09-01T02:22:49;100642.84;;;24.78;74.19
56402;BME280;42299;35.160;26.100;2022-09-01T02:24:11;100647.38;;;24.78;74.25
56402;BME280;42299;35.160;26.100;2022-09-01T02:25:36;100643.94;;;24.74;73.96
56402;BME280;42299;35.160;26.100;2022-09-01T02:26:59;100651.16;;;24.74;74.26
56402;BME280;42299;35.160;26.100;2022-09-01T02:28:24;100652.91;;;24.75;74.59
56402;BME280;42299;35.160;26.100;2022-09-01T02:29:47;100635.75;;;24.76;74.74
56402;BME280;42299;35.160;26.100;2022-09-01T02:31:12;100644.72;;;24.76;74.72
56402;BME280;42299;35.160;26.100;2022-09-01T02:32:34;100647.38;;;24.78;74.71
56402;BME280;42299;35.160;26.100;2022-09-01T02:33:57;100640.09;;;24.80;74.74
56402;BME280;42299;35.160;26.100;2022-09-01T02:35:20;100638.09;;;24.83;74.76
56402;BME280;42299;35.160;26.100;2022-09-01T02:36:46;100635.28;;;24.86;74.55
56402;BME280;42299;35.160;26.100;2022-09-01T02:38:12;100637.88;;;24.89;74.53
56402;BME280;42299;35.160;26.100;2022-09-01T02:39:35;100633.34;;;24.90;74.61
56402;BME280;42299;35.160;26.100;2022-09-01T02:40:58;100632.41;;;24.91;74.65
56402;BME280;42299;35.160;26.100;2022-09-01T02:42:22;100634.25;;;24.89;74.77
56402;BME280;42299;35.160;26.100;2022-09-01T02:43:46;100635.34;;;24.85;74.45
56402;BME280;42299;35.160;26.100;2022-09-01T02:45:09;100633.53;;;24.85;74.47
56402;BME280;42299;35.160;26.100;2022-09-01T02:46:36;100640.56;;;24.89;74.38
56402;BME280;42299;35.160;26.100;2022-09-01T02:47:58;100642.25;;;24.92;74.32
56402;BME280;42299;35.160;26.100;2022-09-01T02:49:23;100637.53;;;24.97;74.50
56402;BME280;42299;35.160;26.100;2022-09-01T02:50:50;100642.84;;;24.98;74.47
56402;BME280;42299;35.160;26.100;2022-09-01T02:52:13;100640.09;;;25.00;74.51
56402;BME280;42299;35.160;26.100;2022-09-01T02:53:38;100644.69;;;24.98;74.21
56402;BME280;42299;35.160;26.100;2022-09-01T02:55:00;100642.25;;;24.92;74.34
56402;BME280;42299;35.160;26.100;2022-09-01T02:56:24;100635.19;;;24.88;74.53
56402;BME280;42299;35.160;26.100;2022-09-01T02:57:50;100638.06;;;24.85;74.45
56402;BME280;42299;35.160;26.100;2022-09-01T02:59:18;100639.94;;;24.83;74.41
56402;BME280;42299;35.160;26.100;2022-09-01T03:00:43;100634.59;;;24.81;74.61
56402;BME280;42299;35.160;26.100;2022-09-01T03:02:05;100639.16;;;24.81;74.92
56402;BME280;42299;35.160;26.100;2022-09-01T03:03:28;100641.03;;;24.79;74.91
56402;BME280;42299;35.160;26.100;2022-09-01T03:04:50;100645.50;;;24.80;74.87
56402;BME280;42299;35.160;26.100;2022-09-01T03:06:15;100638.31;;;24.79;74.89
56402;BME280;42299;35.160;26.100;2022-09-01T03:07:40;100640.09;;;24.80;74.87
56402;BME280;42299;35.160;26.100;2022-09-01T03:09:05;100639.25;;;24.78;75.08
56402;BME280;42299;35.160;26.100;2022-09-01T03:10:31;100630.34;;;24.76;75.25
56402;BME280;42299;35.160;26.100;2022-09-01T03:11:54;100633.16;;;24.74;75.03
56402;BME280;42299;35.160;26.100;2022-09-01T03:13:21;100636.84;;;24.72;75.36
56402;BME280;42299;35.160;26.100;2022-09-01T03:14:45;100635.16;;;24.69;75.54
56402;BME280;42299;35.160;26.100;2022-09-01T03:16:08;100641.59;;;24.67;75.55
56402;BME280;42299;35.160;26.100;2022-09-01T03:17:30;100638.13;;;24.63;75.48
56402;BME280;42299;35.160;26.100;2022-09-01T03:18:52;100636.34;;;24.62;75.83
56402;BME280;42299;35.160;26.100;2022-09-01T03:20:15;100638.94;;;24.65;75.61
56402;BME280;42299;35.160;26.100;2022-09-01T03:21:42;100631.72;;;24.66;75.48
56402;BME280;42299;35.160;26.100;2022-09-01T03:23:09;100642.38;;;24.69;75.45
56402;BME280;42299;35.160;26.100;2022-09-01T03:24:31;100644.13;;;24.70;75.52
56402;BME280;42299;35.160;26.100;2022-09-01T03:25:54;100648.66;;;24.69;75.66
56402;BME280;42299;35.160;26.100;2022-09-01T03:27:15;100643.34;;;24.68;75.65
56402;BME280;42299;35.160;26.100;2022-09-01T03:28:40;100657.78;;;24.67;75.31
56402;BME280;42299;35.160;26.100;2022-09-01T03:30:01;100655.19;;;24.63;75.54
56402;BME280;42299;35.160;26.100;2022-09-01T03:31:24;100648.03;;;24.62;75.65
56402;BME280;42299;35.160;26.100;2022-09-01T03:32:49;100649.94;;;24.60;75.92
56402;BME280;42299;35.160;26.100;2022-09-01T03:34:12;100643.66;;;24.60;75.77
56402;BME280;42299;35.160;26.100;2022-09-01T03:35:42;100651.78;;;24.60;75.92
56402;BME280;42299;35.160;26.100;2022-09-01T03:37:04;100645.50;;;24.59;75.75
56402;BME280;42299;35.160;26.100;2022-09-01T03:38:29;100652.66;;;24.60;75.89
56402;BME280;42299;35.160;26.100;2022-09-01T03:39:52;100651.84;;;24.58;75.97
56402;BME280;42299;35.160;26.100;2022-09-01T03:41:16;100649.13;;;24.58;75.95
56402;BME280;42299;35.160;26.100;2022-09-01T03:42:39;100656.34;;;24.58;75.78
56402;BME280;42299;35.160;26.100;2022-09-01T03:44:02;100648.25;;;24.58;75.77
56402;BME280;42299;35.160;26.100;2022-09-01T03:45:27;100655.47;;;24.57;75.54
56402;BME280;42299;35.160;26.100;2022-09-01T03:46:49;100656.41;;;24.56;75.98
56402;BME280;42299;35.160;26.100;2022-09-01T03:48:12;100657.44;;;24.54;76.03
56402;BME280;42299;35.160;26.100;2022-09-01T03:49:37;100652.16;;;24.51;76.12
56402;BME280;42299;35.160;26.100;2022-09-01T03:51:00;100659.38;;;24.50;75.92
56402;BME280;42299;35.160;26.100;2022-09-01T03:52:23;100655.84;;;24.48;76.20
56402;BME280;42299;35.160;26.100;2022-09-01T03:53:50;100655.84;;;24.48;76.03
56402;BME280;42299;35.160;26.100;2022-09-01T03:55:15;100652.22;;;24.49;75.99
56402;BME280;42299;35.160;26.100;2022-09-01T03:56:44;100651.34;;;24.49;76.42
56402;BME280;42299;35.160;26.100;2022-09-01T03:58:12;100656.75;;;24.49;76.10
56402;BME280;42299;35.160;26.100;2022-09-01T03:59:40;100649.78;;;24.43;76.19
56402;BME280;42299;35.160;26.100;2022-09-01T04:01:05;100649.00;;;24.41;76.36
56402;BME280;42299;35.160;26.100;2022-09-01T04:02:29;100653.44;;;24.42;76.57
56402;BME280;42299;35.160;26.100;2022-09-01T04:03:50;100653.38;;;24.44;76.61
56402;BME280;42299;35.160;26.100;2022-09-01T04:05:18;100662.22;;;24.47;76.63
56402;BME280;42299;35.160;26.100;2022-09-01T04:06:45;100660.31;;;24.49;76.57
56402;BME280;42299;35.160;26.100;2022-09-01T04:08:09;100660.16;;;24.54;76.64
56402;BME280;42299;35.160;26.100;2022-09-01T04:09:33;100659.13;;;24.56;76.68
56402;BME280;42299;35.160;26.100;2022-09-01T04:10:58;100660.75;;;24.60;76.32
56402;BME280;42299;35.160;26.100;2022-09-01T04:12:20;100663.31;;;24.63;76.56
56402;BME280;42299;35.160;26.100;2022-09-01T04:13:45;100659.53;;;24.68;76.35
56402;BME280;42299;35.160;26.100;2022-09-01T04:15:11;100650.34;;;24.72;76.33
56402;BME280;42299;35.160;26.100;2022-09-01T04:16:34;100665.53;;;24.74;76.11
56402;BME280;42299;35.160;26.100;2022-09-01T04:18:14;100657.34;;;24.76;75.87
56402;BME280;42299;35.160;26.100;2022-09-01T04:19:42;100655.41;;;24.79;75.92
56402;BME280;42299;35.160;26.100;2022-09-01T04:21:04;100656.28;;;24.80;75.95
56402;BME280;42299;35.160;26.100;2022-09-01T04:22:29;100661.47;;;24.84;75.71
56402;BME280;42299;35.160;26.100;2022-09-01T04:23:52;100663.06;;;24.90;75.51
56402;BME280;42299;35.160;26.100;2022-09-01T04:25:18;100667.28;;;24.95;75.41
56402;BME280;42299;35.160;26.100;2022-09-01T04:26:44;100662.66;;;24.99;75.64
56402;BME280;42299;35.160;26.100;2022-09-01T04:28:08;100662.44;;;25.04;75.34
56402;BME280;42299;35.160;26.100;2022-09-01T04:29:43;100662.09;;;25.11;75.39
56402;BME280;42299;35.160;26.100;2022-09-01T04:31:09;100661.88;;;25.16;75.37
56402;BME280;42299;35.160;26.100;2022-09-01T04:32:34;100657.28;;;25.18;75.12
56402;BME280;42299;35.160;26.100;2022-09-01T04:33:58;100657.88;;;25.24;74.85
56402;BME280;42299;35.160;26.100;2022-09-01T04:35:22;100657.72;;;25.27;74.68
56402;BME280;42299;35.160;26.100;2022-09-01T04:36:48;100666.50;;;25.32;74.80
56402;BME280;42299;35.160;26.100;2022-09-01T04:38:14;100664.38;;;25.39;74.81
56402;BME280;42299;35.160;26.100;2022-09-01T04:39:38;100665.09;;;25.42;74.74
56402;BME280;42299;35.160;26.100;2022-09-01T04:41:02;100668.47;;;25.48;74.47
56402;BME280;42299;35.160;26.100;2022-09-01T04:42:29;100673.34;;;25.60;74.62
56402;BME280;42299;35.160;26.100;2022-09-01T04:43:53;100663.81;;;25.70;74.35
56402;BME280;42299;35.160;26.100;2022-09-01T04:45:17;100671.34;;;25.82;74.21
56402;BME280;42299;35.160;26.100;2022-09-01T04:46:46;100656.50;;;25.91;74.03
56402;BME280;42299;35.160;26.100;2022-09-01T04:48:11;100660.34;;;26.04;73.80
56402;BME280;42299;35.160;26.100;2022-09-01T04:49:34;100668.66;;;26.18;73.54
56402;BME280;42299;35.160;26.100;2022-09-01T04:50:57;100668.19;;;26.27;73.33
56402;BME280;42299;35.160;26.100;2022-09-01T04:52:22;100659.63;;;26.36;73.09
56402;BME280;42299;35.160;26.100;2022-09-01T04:53:43;100656.34;;;26.47;72.79
56402;BME280;42299;35.160;26.100;2022-09-01T04:55:09;100657.47;;;26.60;72.66
56402;BME280;42299;35.160;26.100;2022-09-01T04:56:39;100660.41;;;26.73;72.31
56402;BME280;42299;35.160;26.100;2022-09-01T04:58:07;100654.25;;;26.86;72.06
56402;BME280;42299;35.160;26.100;2022-09-01T04:59:31;100653.63;;;26.98;71.56
56402;BME280;42299;35.160;26.100;2022-09-01T05:00:55;100656.53;;;27.11;71.26
56402;BME280;42299;35.160;26.100;2022-09-01T05:02:21;100658.41;;;27.26;71.04
56402;BME280;42299;35.160;26.100;2022-09-01T05:03:48;100655.81;;;27.41;70.78
56402;BME280;42299;35.160;26.100;2022-09-01T05:05:36;100657.59;;;27.57;70.36
56402;BME280;42299;35.160;26.100;2022-09-01T05:07:13;100654.03;;;27.72;69.97
56402;BME280;42299;35.160;26.100;2022-09-01T05:08:37;100656.03;;;27.85;69.75
56402;BME280;42299;35.160;26.100;2022-09-01T05:10:06;100655.31;;;27.97;69.46
56402;BME280;42299;35.160;26.100;2022-09-01T05:11:58;100657.06;;;28.13;69.37
56402;BME280;42299;35.160;26.100;2022-09-01T05:13:32;100652.41;;;28.31;69.08
56402;BME280;42299;35.160;26.100;2022-09-01T05:14:55;100653.16;;;28.49;68.79
56402;BME280;42299;35.160;26.100;2022-09-01T05:16:19;100655.81;;;28.65;68.17
56402;BME280;42299;35.160;26.100;2022-09-01T05:17:45;100654.91;;;28.80;67.37
56402;BME280;42299;35.160;26.100;2022-09-01T05:19:08;100653.28;;;28.91;66.79
56402;BME280;42299;35.160;26.100;2022-09-01T05:20:38;100650.47;;;28.93;66.16
56402;BME280;42299;35.160;26.100;2022-09-01T05:22:02;100652.78;;;28.85;66.14
56402;BME280;42299;35.160;26.100;2022-09-01T05:23:30;100666.06;;;28.75;65.81
56402;BME280;42299;35.160;26.100;2022-09-01T05:24:53;100654.13;;;28.78;66.08
56402;BME280;42299;35.160;26.100;2022-09-01T05:26:19;100657.44;;;28.97;65.59
56402;BME280;42299;35.160;26.100;2022-09-01T05:27:44;100662.03;;;29.25;65.30
56402;BME280;42299;35.160;26.100;2022-09-01T05:29:10;100654.97;;;29.51;64.63
56402;BME280;42299;35.160;26.100;2022-09-01T05:30:40;100651.19;;;29.80;63.86
56402;BME280;42299;35.160;26.100;2022-09-01T05:32:03;100653.03;;;29.94;63.38
56402;BME280;42299;35.160;26.100;2022-09-01T05:33:31;100650.03;;;29.98;63.07
56402;BME280;42299;35.160;26.100;2022-09-01T05:34:54;100653.63;;;29.85;62.53
56402;BME280;42299;35.160;26.100;2022-09-01T05:36:19;100653.09;;;29.65;62.62
56402;BME280;42299;35.160;26.100;2022-09-01T05:37:40;100660.00;;;29.43;62.58
56402;BME280;42299;35.160;26.100;2022-09-01T05:39:05;100652.59;;;29.16;62.47
56402;BME280;42299;35.160;26.100;2022-09-01T05:40:27;100652.81;;;28.99;62.89
56402;BME280;42299;35.160;26.100;2022-09-01T05:41:50;100656.50;;;28.98;63.26
56402;BME280;42299;35.160;26.100;2022-09-01T05:43:13;100658.03;;;29.02;63.06
56402;BME280;42299;35.160;26.100;2022-09-01T05:44:38;100654.44;;;29.02;63.31
56402;BME280;42299;35.160;26.100;2022-09-01T05:46:06;100651.06;;;29.12;63.19
56402;BME280;42299;35.160;26.100;2022-09-01T05:47:29;100655.31;;;29.16;63.02
56402;BME280;42299;35.160;26.100;2022-09-01T05:48:59;100649.41;;;29.24;63.05
56402;BME280;42299;35.160;26.100;2022-09-01T05:50:22;100656.91;;;29.49;62.75
56402;BME280;42299;35.160;26.100;2022-09-01T05:51:49;100651.19;;;29.80;61.94
56402;BME280;42299;35.160;26.100;2022-09-01T05:53:15;100655.81;;;30.06;61.49
56402;BME280;42299;35.160;26.100;2022-09-01T05:54:39;100654.38;;;30.28;61.14
56402;BME280;42299;35.160;26.100;2022-09-01T05:56:06;100657.81;;;30.44;60.41
56402;BME280;42299;35.160;26.100;2022-09-01T05:57:30;100653.41;;;30.29;60.34
56402;BME280;42299;35.160;26.100;2022-09-01T05:58:55;100657.56;;;30.07;60.33
56402;BME280;42299;35.160;26.100;2022-09-01T06:00:20;100656.81;;;29.91;60.97
56402;BME280;42299;35.160;26.100;2022-09-01T06:01:43;100656.22;;;30.00;60.87
56402;BME280;42299;35.160;26.100;2022-09-01T06:03:08;100659.53;;;30.05;60.70
56402;BME280;42299;35.160;26.100;2022-09-01T06:04:38;100663.13;;;30.06;60.30
56402;BME280;42299;35.160;26.100;2022-09-01T06:06:08;100659.06;;;29.99;60.19
56402;BME280;42299;35.160;26.100;2022-09-01T06:07:34;100655.56;;;29.97;60.12
56402;BME280;42299;35.160;26.100;2022-09-01T06:08:58;100659.53;;;29.91;60.19
56402;BME280;42299;35.160;26.100;2022-09-01T06:10:22;100653.06;;;29.80;60.09
56402;BME280;42299;35.160;26.100;2022-09-01T06:11:45;100655.91;;;29.64;60.04
56402;BME280;42299;35.160;26.100;2022-09-01T06:13:08;100656.97;;;29.47;60.04
56402;BME280;42299;35.160;26.100;2022-09-01T06:14:31;100663.03;;;29.38;60.24
56402;BME280;42299;35.160;26.100;2022-09-01T06:15:55;100664.94;;;29.64;60.28
56402;BME280;42299;35.160;26.100;2022-09-01T06:17:20;100661.94;;;30.10;60.10
56402;BME280;42299;35.160;26.100;2022-09-01T06:18:45;100657.91;;;30.42;59.30
56402;BME280;42299;35.160;26.100;2022-09-01T06:20:10;100658.44;;;30.47;58.88
56402;BME280;42299;35.160;26.100;2022-09-01T06:21:32;100664.19;;;30.57;58.77
56402;BME280;42299;35.160;26.100;2022-09-01T06:22:55;100661.47;;;30.57;57.97
56402;BME280;42299;35.160;26.100;2022-09-01T06:24:18;100662.06;;;30.48;58.13
56402;BME280;42299;35.160;26.100;2022-09-01T06:25:42;100660.19;;;30.48;57.92
56402;BME280;42299;35.160;26.100;2022-09-01T06:27:08;100661.56;;;30.56;57.84
56402;BME280;42299;35.160;26.100;2022-09-01T06:28:31;100663.53;;;30.66;57.64
56402;BME280;42299;35.160;26.100;2022-09-01T06:29:54;100659.28;;;30.62;57.45
56402;BME280;42299;35.160;26.100;2022-09-01T06:31:18;100662.06;;;30.48;57.65
56402;BME280;42299;35.160;26.100;2022-09-01T06:32:40;100663.63;;;30.25;57.29
56402;BME280;42299;35.160;26.100;2022-09-01T06:34:08;100662.25;;;29.91;57.46
56402;BME280;42299;35.160;26.100;2022-09-01T06:35:42;100664.16;;;29.62;58.33
56402;BME280;42299;35.160;26.100;2022-09-01T06:37:07;100666.34;;;29.43;58.78
56402;BME280;42299;35.160;26.100;2022-09-01T06:38:30;100671.09;;;29.40;58.70
56402;BME280;42299;35.160;26.100;2022-09-01T06:39:53;100665.91;;;29.63;58.77
56402;BME280;42299;35.160;26.100;2022-09-01T06:41:18;100662.44;;;30.02;58.18
56402;BME280;42299;35.160;26.100;2022-09-01T06:42:41;100662.06;;;30.48;57.73
56402;BME280;42299;35.160;26.100;2022-09-01T06:44:03;100661.94;;;30.89;57.09
56402;BME280;42299;35.160;26.100;2022-09-01T06:45:26;100661.97;;;31.27;56.36
56402;BME280;42299;35.160;26.100;2022-09-01T06:46:49;100663.47;;;31.56;55.52
56402;BME280;42299;35.160;26.100;2022-09-01T06:48:12;100666.75;;;31.61;54.93
56402;BME280;42299;35.160;26.100;2022-09-01T06:49:36;100668.91;;;31.56;54.93
56402;BME280;42299;35.160;26.100;2022-09-01T06:51:06;100665.78;;;31.37;54.71
56402;BME280;42299;35.160;26.100;2022-09-01T06:52:29;100667.66;;;31.11;54.68
56402;BME280;42299;35.160;26.100;2022-09-01T06:53:52;100665.19;;;30.81;55.02
56402;BME280;42299;35.160;26.100;2022-09-01T06:55:22;100668.34;;;30.63;55.58
56402;BME280;42299;35.160;26.100;2022-09-01T06:56:44;100674.66;;;30.51;55.36
56402;BME280;42299;35.160;26.100;2022-09-01T06:58:09;100667.81;;;30.43;55.70
56402;BME280;42299;35.160;26.100;2022-09-01T06:59:38;100674.00;;;30.60;55.94
56402;BME280;42299;35.160;26.100;2022-09-01T07:01:05;100673.47;;;30.80;55.41
56402;BME280;42299;35.160;26.100;2022-09-01T07:02:34;100676.00;;;30.70;55.42
56402;BME280;42299;35.160;26.100;2022-09-01T07:04:27;100680.00;;;30.52;55.73
56402;BME280;42299;35.160;26.100;2022-09-01T07:05:56;100676.00;;;30.43;56.06
56402;BME280;42299;35.160;26.100;2022-09-01T07:07:40;100680.75;;;30.54;56.17
56402;BME280;42299;35.160;26.100;2022-09-01T07:09:22;100682.75;;;30.65;55.84
56402;BME280;42299;35.160;26.100;2022-09-01T07:11:19;100680.59;;;30.95;55.52
56402;BME280;42299;35.160;26.100;2022-09-01T07:12:44;100681.41;;;31.10;54.87
56402;BME280;42299;35.160;26.100;2022-09-01T07:14:08;100685.53;;;31.15;54.36
56402;BME280;42299;35.160;26.100;2022-09-01T07:15:31;100677.91;;;31.08;54.57
56402;BME280;42299;35.160;26.100;2022-09-01T07:16:55;100689.41;;;30.99;54.67
56402;BME280;42299;35.160;26.100;2022-09-01T07:18:19;100683.41;;;30.94;54.51
56402;BME280;42299;35.160;26.100;2022-09-01T07:19:41;100687.56;;;30.86;54.77